sensor_id;sensor_type;location;lat;lon;timestamp;pressure;altitude;pressure_sealevel;temperature;humidity
12636;BME280;6383;50.830;7.210;2023-04-20T00:01:37;101175.34;;;11.07;43.35
12636;BME280;6383;50.830;7.210;2023-04-20T00:04:06;101184.09;;;11.04;43.11
12636;BME280;6383;50.830;7.210;2023-04-20T00:06:34;101187.16;;;10.97;43.49
12636;BME280;6383;50.830;7.210;2023-04-20T00:09:03;101182.84;;;10.91;43.74
12636;BME280;6383;50.830;7.210;2023-04-20T00:11:32;101170.91;;;10.87;44.22
12636;BME280;6383;50.830;7.210;2023-04-20T00:14:01;101168.75;;;10.84;43.48
12636;BME280;6383;50.830;7.210;2023-04-20T00:16:29;101161.19;;;10.81;44.08
12636;BME280;6383;50.830;7.210;2023-04-20T00:19:00;101158.75;;;10.79;43.84
12636;BME280;6383;50.830;7.210;2023-04-20T00:21:27;101145.94;;;10.80;44.34
12636;BME280;6383;50.830;7.210;2023-04-20T00:23:56;101141.31;;;10.80;43.95
12636;BME280;6383;50.830;7.210;2023-04-20T00:26:24;101146.75;;;10.80;43.82
12636;BME280;6383;50.830;7.210;2023-04-20T00:28:52;101131.59;;;10.98;45.79
12636;BME280;6383;50.830;7.210;2023-04-20T00:31:20;101127.41;;;11.06;45.09
12636;BME280;6383;50.830;7.210;2023-04-20T00:33:49;101124.44;;;11.02;44.86
12636;BME280;6383;50.830;7.210;2023-04-20T00:36:18;101123.72;;;10.97;44.27
12636;BME280;6383;50.830;7.210;2023-04-20T00:38:46;101112.34;;;10.89;43.87
12636;BME280;6383;50.830;7.210;2023-04-20T00:41:15;101112.97;;;10.81;44.49
12636;BME280;6383;50.830;7.210;2023-04-20T00:43:51;101106.75;;;10.76;43.96
12636;BME280;6383;50.830;7.210;2023-04-20T00:46:19;101110.63;;;10.70;44.51
12636;BME280;6383;50.830;7.210;2023-04-20T00:48:49;101107.97;;;10.65;44.70
12636;BME280;6383;50.830;7.210;2023-04-20T00:51:20;101098.47;;;10.62;44.50
12636;BME280;6383;50.830;7.210;2023-04-20T00:53:50;101091.69;;;10.59;44.39
12636;BME280;6383;50.830;7.210;2023-04-20T00:56:19;101102.31;;;10.56;44.20
12636;BME280;6383;50.830;7.210;2023-04-20T00:58:48;101097.97;;;10.55;44.46
12636;BME280;6383;50.830;7.210;2023-04-20T01:01:16;101100.19;;;10.53;44.31
12636;BME280;6383;50.830;7.210;2023-04-20T01:03:45;101099.97;;;10.49;44.12
12636;BME280;6383;50.830;7.210;2023-04-20T01:06:13;101087.44;;;10.48;44.92
12636;BME280;6383;50.830;7.210;2023-04-20T01:08:48;101080.09;;;10.49;44.69
12636;BME280;6383;50.830;7.210;2023-04-20T01:11:20;101088.25;;;10.49;45.08
12636;BME280;6383;50.830;7.210;2023-04-20T01:13:48;101082.28;;;10.47;44.55
12636;BME280;6383;50.830;7.210;2023-04-20T01:16:16;101082.28;;;10.47;45.31
12636;BME280;6383;50.830;7.210;2023-04-20T01:18:46;101077.38;;;10.49;45.10
12636;BME280;6383;50.830;7.210;2023-04-20T01:21:15;101080.91;;;10.49;45.58
12636;BME280;6383;50.830;7.210;2023-04-20T01:23:45;101083.06;;;10.52;45.69
12636;BME280;6383;50.830;7.210;2023-04-20T01:26:16;101086.00;;;10.56;45.65
12636;BME280;6383;50.830;7.210;2023-04-20T01:28:46;101070.19;;;10.58;46.44
12636;BME280;6383;50.830;7.210;2023-04-20T01:31:14;101067.72;;;10.62;45.62
12636;BME280;6383;50.830;7.210;2023-04-20T01:33:42;101066.84;;;10.66;45.51
12636;BME280;6383;50.830;7.210;2023-04-20T01:36:11;101055.38;;;10.69;45.62
12636;BME280;6383;50.830;7.210;2023-04-20T01:38:39;101059.16;;;10.73;46.05
12636;BME280;6383;50.830;7.210;2023-04-20T01:41:09;101056.94;;;10.75;46.04
12636;BME280;6383;50.830;7.210;2023-04-20T01:43:37;101055.84;;;10.76;45.66
12636;BME280;6383;50.830;7.210;2023-04-20T01:46:05;101050.13;;;10.78;46.08
12636;BME280;6383;50.830;7.210;2023-04-20T01:48:34;101038.94;;;10.79;46.13
12636;BME280;6383;50.830;7.210;2023-04-20T01:51:02;101044.63;;;10.83;45.83
12636;BME280;6383;50.830;7.210;2023-04-20T01:53:30;101044.84;;;10.86;45.76
12636;BME280;6383;50.830;7.210;2023-04-20T01:55:59;101044.25;;;10.89;46.22
12636;BME280;6383;50.830;7.210;2023-04-20T01:58:28;101040.16;;;10.92;46.44
12636;BME280;6383;50.830;7.210;2023-04-20T02:00:56;101032.78;;;10.92;46.66
12636;BME280;6383;50.830;7.210;2023-04-20T02:03:25;101032.78;;;10.92;45.73
12636;BME280;6383;50.830;7.210;2023-04-20T02:05:52;101036.31;;;10.93;46.65
12636;BME280;6383;50.830;7.210;2023-04-20T02:08:20;101031.41;;;10.95;46.38
12636;BME280;6383;50.830;7.210;2023-04-20T02:10:49;101033.53;;;10.98;46.95
12636;BME280;6383;50.830;7.210;2023-04-20T02:13:18;101024.72;;;11.06;45.73
12636;BME280;6383;50.830;7.210;2023-04-20T02:15:48;101028.38;;;10.97;46.90
12636;BME280;6383;50.830;7.210;2023-04-20T02:18:16;101021.53;;;10.99;46.90
12636;BME280;6383;50.830;7.210;2023-04-20T02:20:45;101016.59;;;11.01;47.52
12636;BME280;6383;50.830;7.210;2023-04-20T02:23:13;101012.78;;;11.02;47.69
12636;BME280;6383;50.830;7.210;2023-04-20T02:25:42;101006.75;;;11.05;47.25
12636;BME280;6383;50.830;7.210;2023-04-20T02:28:11;101000.72;;;11.08;47.27
12636;BME280;6383;50.830;7.210;2023-04-20T02:30:38;101002.06;;;11.11;47.05
12636;BME280;6383;50.830;7.210;2023-04-20T02:33:09;100990.56;;;11.14;47.66
12636;BME280;6383;50.830;7.210;2023-04-20T02:35:36;100993.50;;;11.17;47.38
12636;BME280;6383;50.830;7.210;2023-04-20T02:38:05;100988.56;;;11.19;47.71
12636;BME280;6383;50.830;7.210;2023-04-20T02:40:33;100987.47;;;11.20;48.19
12636;BME280;6383;50.830;7.210;2023-04-20T02:43:02;100987.19;;;11.22;47.66
12636;BME280;6383;50.830;7.210;2023-04-20T02:45:31;100981.94;;;11.44;48.79
12636;BME280;6383;50.830;7.210;2023-04-20T02:48:00;100976.94;;;11.51;47.91
12636;BME280;6383;50.830;7.210;2023-04-20T02:50:30;100970.44;;;11.47;48.09
12636;BME280;6383;50.830;7.210;2023-04-20T02:52:59;100975.69;;;11.44;47.77
12636;BME280;6383;50.830;7.210;2023-04-20T02:55:28;100969.69;;;11.60;48.81
12636;BME280;6383;50.830;7.210;2023-04-20T02:57:56;100976.69;;;11.66;48.08
12636;BME280;6383;50.830;7.210;2023-04-20T03:00:25;100965.56;;;11.82;48.03
12636;BME280;6383;50.830;7.210;2023-04-20T03:02:53;100966.78;;;11.89;46.88
12636;BME280;6383;50.830;7.210;2023-04-20T03:05:20;100957.97;;;11.79;46.47
12636;BME280;6383;50.830;7.210;2023-04-20T03:07:50;100965.06;;;11.61;47.30
12636;BME280;6383;50.830;7.210;2023-04-20T03:10:19;100961.91;;;11.54;47.40
12636;BME280;6383;50.830;7.210;2023-04-20T03:12:49;100966.03;;;11.51;47.35
12636;BME280;6383;50.830;7.210;2023-04-20T03:15:18;100961.16;;;11.48;47.44
12636;BME280;6383;50.830;7.210;2023-04-20T03:17:51;100954.09;;;11.47;47.14
12636;BME280;6383;50.830;7.210;2023-04-20T03:20:20;100953.28;;;11.47;47.68
12636;BME280;6383;50.830;7.210;2023-04-20T03:22:50;100950.25;;;11.48;47.58
12636;BME280;6383;50.830;7.210;2023-04-20T03:25:19;100953.81;;;11.49;47.63
12636;BME280;6383;50.830;7.210;2023-04-20T03:27:47;100953.81;;;11.49;48.26
12636;BME280;6383;50.830;7.210;2023-04-20T03:30:16;100951.06;;;11.49;47.98
12636;BME280;6383;50.830;7.210;2023-04-20T03:32:45;100961.16;;;11.48;46.56
12636;BME280;6383;50.830;7.210;2023-04-20T03:35:13;100944.81;;;11.48;46.54
12636;BME280;6383;50.830;7.210;2023-04-20T03:37:42;100960.06;;;11.49;46.59
12636;BME280;6383;50.830;7.210;2023-04-20T03:40:13;100955.41;;;11.50;46.87
12636;BME280;6383;50.830;7.210;2023-04-20T03:42:40;100954.63;;;11.49;46.32
12636;BME280;6383;50.830;7.210;2023-04-20T03:45:10;100945.09;;;11.47;46.43
12636;BME280;6383;50.830;7.210;2023-04-20T03:47:39;100954.63;;;11.49;45.88
12636;BME280;6383;50.830;7.210;2023-04-20T03:50:07;100949.69;;;11.51;46.47
12636;BME280;6383;50.830;7.210;2023-04-20T03:52:36;100945.84;;;11.52;46.59
12636;BME280;6383;50.830;7.210;2023-04-20T03:55:05;100947.47;;;11.53;46.93
12636;BME280;6383;50.830;7.210;2023-04-20T03:57:36;100951.00;;;11.54;47.95
12636;BME280;6383;50.830;7.210;2023-04-20T04:00:04;100940.09;;;11.54;48.10
12636;BME280;6383;50.830;7.210;2023-04-20T04:02:34;100941.22;;;11.53;48.71
12636;BME280;6383;50.830;7.210;2023-04-20T04:05:01;100938.47;;;11.53;47.70
12636;BME280;6383;50.830;7.210;2023-04-20T04:07:30;100945.03;;;11.52;48.57
12636;BME280;6383;50.830;7.210;2023-04-20T04:09:57;100942.59;;;11.50;48.66
12636;BME280;6383;50.830;7.210;2023-04-20T04:12:24;100935.31;;;11.46;48.58
12636;BME280;6383;50.830;7.210;2023-04-20T04:14:53;100936.72;;;11.43;48.22
12636;BME280;6383;50.830;7.210;2023-04-20T04:17:25;100937.22;;;11.45;48.63
12636;BME280;6383;50.830;7.210;2023-04-20T04:19:53;100934.94;;;11.52;47.75
12636;BME280;6383;50.830;7.210;2023-04-20T04:22:21;100939.44;;;11.43;48.47
12636;BME280;6383;50.830;7.210;2023-04-20T04:24:50;100936.72;;;11.43;48.09
12636;BME280;6383;50.830;7.210;2023-04-20T04:27:19;100933.50;;;11.41;49.02
12636;BME280;6383;50.830;7.210;2023-04-20T04:29:47;100934.59;;;11.40;48.60
12636;BME280;6383;50.830;7.210;2023-04-20T04:32:17;100922.88;;;11.40;48.78
12636;BME280;6383;50.830;7.210;2023-04-20T04:34:47;100928.63;;;11.38;48.48
12636;BME280;6383;50.830;7.210;2023-04-20T04:37:15;100921.56;;;11.37;49.49
12636;BME280;6383;50.830;7.210;2023-04-20T04:39:44;100926.72;;;11.39;50.21
12636;BME280;6383;50.830;7.210;2023-04-20T04:42:13;100931.06;;;11.40;50.77
12636;BME280;6383;50.830;7.210;2023-04-20T04:44:41;100922.38;;;11.38;49.92
12636;BME280;6383;50.830;7.210;2023-04-20T04:47:11;100917.72;;;11.38;50.11
12636;BME280;6383;50.830;7.210;2023-04-20T04:49:42;100934.09;;;11.38;50.26
12636;BME280;6383;50.830;7.210;2023-04-20T04:52:12;100919.13;;;11.36;51.23
12636;BME280;6383;50.830;7.210;2023-04-20T04:54:41;100914.78;;;11.35;51.37
12636;BME280;6383;50.830;7.210;2023-04-20T04:57:10;100920.81;;;11.31;50.26
12636;BME280;6383;50.830;7.210;2023-04-20T04:59:39;100919.72;;;11.32;50.66
12636;BME280;6383;50.830;7.210;2023-04-20T05:02:09;100912.66;;;11.31;51.28
12636;BME280;6383;50.830;7.210;2023-04-20T05:04:38;100914.28;;;11.32;51.77
12636;BME280;6383;50.830;7.210;2023-04-20T05:07:08;100915.06;;;11.33;51.10
12636;BME280;6383;50.830;7.210;2023-04-20T05:09:38;100911.25;;;11.34;51.27
12636;BME280;6383;50.830;7.210;2023-04-20T05:12:07;100908.00;;;11.32;50.81
12636;BME280;6383;50.830;7.210;2023-04-20T05:14:36;100906.91;;;11.33;51.26
12636;BME280;6383;50.830;7.210;2023-04-20T05:17:04;100913.47;;;11.32;51.48
12636;BME280;6383;50.830;7.210;2023-04-20T05:19:31;100919.72;;;11.32;51.71
12636;BME280;6383;50.830;7.210;2023-04-20T05:21:59;100914.03;;;11.29;52.14
12636;BME280;6383;50.830;7.210;2023-04-20T05:24:29;100915.16;;;11.28;52.46
12636;BME280;6383;50.830;7.210;2023-04-20T05:26:58;100913.56;;;11.27;52.59
12636;BME280;6383;50.830;7.210;2023-04-20T05:29:25;100910.31;;;11.25;52.82
12636;BME280;6383;50.830;7.210;2023-04-20T05:31:54;100911.13;;;11.25;53.12
12636;BME280;6383;50.830;7.210;2023-04-20T05:34:23;100916.88;;;11.24;52.82
12636;BME280;6383;50.830;7.210;2023-04-20T05:36:51;100908.69;;;11.24;52.63
12636;BME280;6383;50.830;7.210;2023-04-20T05:39:20;100917.69;;;11.24;52.66
12636;BME280;6383;50.830;7.210;2023-04-20T05:41:51;100914.16;;;11.24;52.52
12636;BME280;6383;50.830;7.210;2023-04-20T05:44:19;100916.28;;;11.27;52.65
12636;BME280;6383;50.830;7.210;2023-04-20T05:46:48;100912.41;;;11.28;52.54
12636;BME280;6383;50.830;7.210;2023-04-20T05:49:17;100914.38;;;11.27;53.11
12636;BME280;6383;50.830;7.210;2023-04-20T05:51:47;100919.50;;;11.29;53.35
12636;BME280;6383;50.830;7.210;2023-04-20T05:54:16;100920.31;;;11.29;52.22
12636;BME280;6383;50.830;7.210;2023-04-20T05:56:54;100911.84;;;11.31;53.04
12636;BME280;6383;50.830;7.210;2023-04-20T05:59:31;100912.66;;;11.31;52.65
12636;BME280;6383;50.830;7.210;2023-04-20T06:02:00;100911.31;;;11.29;52.30
12636;BME280;6383;50.830;7.210;2023-04-20T06:04:27;100915.66;;;11.30;52.69
12636;BME280;6383;50.830;7.210;2023-04-20T06:06:57;100919.72;;;11.32;53.05
12636;BME280;6383;50.830;7.210;2023-04-20T06:09:25;100913.69;;;11.36;52.75
12636;BME280;6383;50.830;7.210;2023-04-20T06:11:56;100918.84;;;11.37;53.05
12636;BME280;6383;50.830;7.210;2023-04-20T06:14:25;100909.84;;;11.37;52.40
12636;BME280;6383;50.830;7.210;2023-04-20T06:17:01;100915.81;;;11.39;52.69
12636;BME280;6383;50.830;7.210;2023-04-20T06:19:30;100917.44;;;11.40;52.81
12636;BME280;6383;50.830;7.210;2023-04-20T06:21:59;100922.59;;;11.41;53.05
12636;BME280;6383;50.830;7.210;2023-04-20T06:24:28;100920.69;;;11.42;52.99
12636;BME280;6383;50.830;7.210;2023-04-20T06:26:57;100914.72;;;11.40;53.50
12636;BME280;6383;50.830;7.210;2023-04-20T06:29:25;100920.16;;;11.40;53.15
12636;BME280;6383;50.830;7.210;2023-04-20T06:31:53;100918.84;;;11.37;53.29
12636;BME280;6383;50.830;7.210;2023-04-20T06:34:20;100918.63;;;11.34;53.52
12636;BME280;6383;50.830;7.210;2023-04-20T06:36:49;100910.72;;;11.32;53.81
12636;BME280;6383;50.830;7.210;2023-04-20T06:39:19;100916.47;;;11.30;54.01
12636;BME280;6383;50.830;7.210;2023-04-20T06:41:48;100911.03;;;11.30;54.69
12636;BME280;6383;50.830;7.210;2023-04-20T06:44:18;100911.66;;;11.27;54.44
12636;BME280;6383;50.830;7.210;2023-04-20T06:46:50;100910.84;;;11.27;55.13
12636;BME280;6383;50.830;7.210;2023-04-20T06:49:18;100903.75;;;11.26;55.69
12636;BME280;6383;50.830;7.210;2023-04-20T06:51:46;100915.75;;;11.25;55.20
12636;BME280;6383;50.830;7.210;2023-04-20T06:54:15;100907.66;;;11.20;55.59
12636;BME280;6383;50.830;7.210;2023-04-20T06:56:44;100902.50;;;11.18;55.70
12636;BME280;6383;50.830;7.210;2023-04-20T06:59:12;100907.94;;;11.18;55.89
12636;BME280;6383;50.830;7.210;2023-04-20T07:01:44;100899.25;;;11.16;56.03
12636;BME280;6383;50.830;7.210;2023-04-20T07:04:13;100904.41;;;11.18;56.21
12636;BME280;6383;50.830;7.210;2023-04-20T07:06:41;100898.66;;;11.19;56.44
12636;BME280;6383;50.830;7.210;2023-04-20T07:09:09;100909.78;;;11.23;56.64
12636;BME280;6383;50.830;7.210;2023-04-20T07:11:38;100907.06;;;11.23;56.76
12636;BME280;6383;50.830;7.210;2023-04-20T07:14:07;100896.19;;;11.23;57.11
12636;BME280;6383;50.830;7.210;2023-04-20T07:16:36;100897.78;;;11.24;57.46
12636;BME280;6383;50.830;7.210;2023-04-20T07:19:06;100896.69;;;11.25;57.95
12636;BME280;6383;50.830;7.210;2023-04-20T07:21:36;100895.59;;;11.26;57.77
12636;BME280;6383;50.830;7.210;2023-04-20T07:24:05;100895.59;;;11.26;57.51
12636;BME280;6383;50.830;7.210;2023-04-20T07:26:33;100895.88;;;11.24;57.19
12636;BME280;6383;50.830;7.210;2023-04-20T07:29:00;100895.88;;;11.24;57.78
12636;BME280;6383;50.830;7.210;2023-04-20T07:31:29;100892.63;;;11.22;58.06
12636;BME280;6383;50.830;7.210;2023-04-20T07:33:58;100894.25;;;11.23;58.43
12636;BME280;6383;50.830;7.210;2023-04-20T07:36:28;100888.22;;;11.26;58.80
12636;BME280;6383;50.830;7.210;2023-04-20T07:38:56;100888.72;;;11.28;58.95
12636;BME280;6383;50.830;7.210;2023-04-20T07:41:25;100890.31;;;11.29;58.18
12636;BME280;6383;50.830;7.210;2023-04-20T07:43:54;100892.16;;;11.34;58.84
12636;BME280;6383;50.830;7.210;2023-04-20T07:46:23;100895.41;;;11.36;59.35
12636;BME280;6383;50.830;7.210;2023-04-20T07:48:53;100894.31;;;11.37;59.10
12636;BME280;6383;50.830;7.210;2023-04-20T07:51:22;100888.56;;;11.39;59.35
12636;BME280;6383;50.830;7.210;2023-04-20T07:53:52;100895.94;;;11.38;58.69
12636;BME280;6383;50.830;7.210;2023-04-20T07:56:20;100894.59;;;11.36;58.74
12636;BME280;6383;50.830;7.210;2023-04-20T07:58:51;100891.88;;;11.36;59.33
12636;BME280;6383;50.830;7.210;2023-04-20T08:01:22;100892.09;;;11.39;59.49
12636;BME280;6383;50.830;7.210;2023-04-20T08:03:52;100883.34;;;11.42;59.78
12636;BME280;6383;50.830;7.210;2023-04-20T08:06:21;100881.38;;;11.43;59.33
12636;BME280;6383;50.830;7.210;2023-04-20T08:08:48;100885.25;;;11.42;59.52
12636;BME280;6383;50.830;7.210;2023-04-20T08:11:19;100883.63;;;11.41;59.34
12636;BME280;6383;50.830;7.210;2023-04-20T08:13:48;100882.81;;;11.40;59.58
12636;BME280;6383;50.830;7.210;2023-04-20T08:16:17;100881.19;;;11.39;58.98
12636;BME280;6383;50.830;7.210;2023-04-20T08:18:46;100880.91;;;11.41;59.86
12636;BME280;6383;50.830;7.210;2023-04-20T08:21:15;100879.81;;;11.42;60.11
12636;BME280;6383;50.830;7.210;2023-04-20T08:23:46;100884.63;;;11.45;60.45
12636;BME280;6383;50.830;7.210;2023-04-20T08:26:15;100874.53;;;11.45;60.58
12636;BME280;6383;50.830;7.210;2023-04-20T08:28:46;100883.22;;;11.47;60.63
12636;BME280;6383;50.830;7.210;2023-04-20T08:31:15;100877.78;;;11.47;60.19
12636;BME280;6383;50.830;7.210;2023-04-20T08:33:44;100884.03;;;11.48;60.50
12636;BME280;6383;50.830;7.210;2023-04-20T08:36:13;100884.03;;;11.48;60.60
12636;BME280;6383;50.830;7.210;2023-04-20T08:38:41;100876.66;;;11.48;60.67
12636;BME280;6383;50.830;7.210;2023-04-20T08:41:10;100876.97;;;11.47;60.48
12636;BME280;6383;50.830;7.210;2023-04-20T08:43:40;100885.97;;;11.47;60.60
12636;BME280;6383;50.830;7.210;2023-04-20T08:46:11;100880.81;;;11.46;60.08
12636;BME280;6383;50.830;7.210;2023-04-20T08:48:44;100879.00;;;11.41;59.47
12636;BME280;6383;50.830;7.210;2023-04-20T08:51:14;100876.34;;;11.36;59.78
12636;BME280;6383;50.830;7.210;2023-04-20T08:53:44;100877.44;;;11.35;59.96
12636;BME280;6383;50.830;7.210;2023-04-20T08:56:13;100879.34;;;11.35;60.91
12636;BME280;6383;50.830;7.210;2023-04-20T08:58:41;100884.00;;;11.34;60.20
12636;BME280;6383;50.830;7.210;2023-04-20T09:01:10;100876.41;;;11.31;60.39
12636;BME280;6383;50.830;7.210;2023-04-20T09:03:40;100879.13;;;11.31;60.81
12636;BME280;6383;50.830;7.210;2023-04-20T09:06:14;100873.09;;;11.34;61.90
12636;BME280;6383;50.830;7.210;2023-04-20T09:08:44;100871.69;;;11.37;61.93
12636;BME280;6383;50.830;7.210;2023-04-20T09:11:20;100870.81;;;11.41;61.64
12636;BME280;6383;50.830;7.210;2023-04-20T09:13:58;100873.03;;;11.39;61.42
12636;BME280;6383;50.830;7.210;2023-04-20T09:16:29;100868.69;;;11.38;61.25
12636;BME280;6383;50.830;7.210;2023-04-20T09:18:58;100870.59;;;11.38;61.17
12636;BME280;6383;50.830;7.210;2023-04-20T09:21:27;100864.56;;;11.41;61.14
12636;BME280;6383;50.830;7.210;2023-04-20T09:23:58;100857.66;;;11.43;61.86
12636;BME280;6383;50.830;7.210;2023-04-20T09:26:30;100856.28;;;11.46;61.52
12636;BME280;6383;50.830;7.210;2023-04-20T09:29:01;100849.13;;;11.50;60.56
12636;BME280;6383;50.830;7.210;2023-04-20T09:31:35;100853.69;;;11.54;61.04
12636;BME280;6383;50.830;7.210;2023-04-20T09:34:03;100861.28;;;11.57;61.35
12636;BME280;6383;50.830;7.210;2023-04-20T09:36:35;100857.91;;;11.60;60.91
12636;BME280;6383;50.830;7.210;2023-04-20T09:39:08;100870.44;;;11.61;59.90
12636;BME280;6383;50.830;7.210;2023-04-20T09:41:38;100875.69;;;11.58;59.87
12636;BME280;6383;50.830;7.210;2023-04-20T09:44:08;100867.31;;;11.54;59.30
12636;BME280;6383;50.830;7.210;2023-04-20T09:46:40;100875.56;;;11.49;59.93
12636;BME280;6383;50.830;7.210;2023-04-20T09:49:11;100876.47;;;11.45;59.83
12636;BME280;6383;50.830;7.210;2023-04-20T09:51:42;100869.50;;;11.39;59.68
12636;BME280;6383;50.830;7.210;2023-04-20T09:54:13;100867.72;;;11.29;60.48
12636;BME280;6383;50.830;7.210;2023-04-20T09:56:40;100871.34;;;11.24;60.44
12636;BME280;6383;50.830;7.210;2023-04-20T09:59:10;100868.41;;;11.21;60.94
12636;BME280;6383;50.830;7.210;2023-04-20T10:01:41;100874.91;;;11.25;61.84
12636;BME280;6383;50.830;7.210;2023-04-20T10:04:10;100864.81;;;11.25;61.27
12636;BME280;6383;50.830;7.210;2023-04-20T10:06:39;100863.38;;;11.28;61.08
12636;BME280;6383;50.830;7.210;2023-04-20T10:09:20;100861.69;;;11.32;61.27
12636;BME280;6383;50.830;7.210;2023-04-20T10:11:49;100858.16;;;11.31;60.64
12636;BME280;6383;50.830;7.210;2023-04-20T10:14:17;100858.38;;;11.35;61.21
12636;BME280;6383;50.830;7.210;2023-04-20T10:16:58;100848.69;;;11.43;61.33
12636;BME280;6383;50.830;7.210;2023-04-20T10:19:37;100844.78;;;11.49;61.87
12636;BME280;6383;50.830;7.210;2023-04-20T10:22:07;100840.34;;;11.53;60.74
12636;BME280;6383;50.830;7.210;2023-04-20T10:24:37;100841.69;;;11.55;60.30
12636;BME280;6383;50.830;7.210;2023-04-20T10:27:15;100845.59;;;11.63;60.79
12636;BME280;6383;50.830;7.210;2023-04-20T10:29:45;100848.56;;;11.66;60.71
12636;BME280;6383;50.830;7.210;2023-04-20T10:32:23;100844.03;;;11.76;61.31
12636;BME280;6383;50.830;7.210;2023-04-20T10:35:00;100840.41;;;11.80;60.61
12636;BME280;6383;50.830;7.210;2023-04-20T10:37:28;100844.78;;;11.81;59.77
12636;BME280;6383;50.830;7.210;2023-04-20T10:39:59;100847.78;;;11.80;58.42
12636;BME280;6383;50.830;7.210;2023-04-20T10:42:28;100840.72;;;11.79;58.60
12636;BME280;6383;50.830;7.210;2023-04-20T10:44:55;100841.22;;;11.81;57.66
12636;BME280;6383;50.830;7.210;2023-04-20T10:47:30;100841.75;;;11.83;57.82
12636;BME280;6383;50.830;7.210;2023-04-20T10:50:09;100843.88;;;11.86;57.36
12636;BME280;6383;50.830;7.210;2023-04-20T10:52:40;100841.44;;;11.84;56.50
12636;BME280;6383;50.830;7.210;2023-04-20T10:55:19;100842.94;;;11.90;57.05
12636;BME280;6383;50.830;7.210;2023-04-20T10:57:48;100838.81;;;11.93;57.32
12636;BME280;6383;50.830;7.210;2023-04-20T11:00:19;100834.25;;;12.02;57.42
12636;BME280;6383;50.830;7.210;2023-04-20T11:02:51;100836.28;;;12.10;57.50
12636;BME280;6383;50.830;7.210;2023-04-20T11:05:21;100837.81;;;12.16;56.22
12636;BME280;6383;50.830;7.210;2023-04-20T11:07:50;100843.44;;;12.20;56.28
12636;BME280;6383;50.830;7.210;2023-04-20T11:10:21;100845.38;;;12.19;56.59
12636;BME280;6383;50.830;7.210;2023-04-20T11:12:51;100833.84;;;12.22;57.59
12636;BME280;6383;50.830;7.210;2023-04-20T11:15:29;100839.81;;;12.38;56.85
12636;BME280;6383;50.830;7.210;2023-04-20T11:18:06;100832.13;;;12.40;57.12
12636;BME280;6383;50.830;7.210;2023-04-20T11:20:34;100832.19;;;12.49;56.94
12636;BME280;6383;50.830;7.210;2023-04-20T11:23:03;100827.03;;;12.61;56.75
12636;BME280;6383;50.830;7.210;2023-04-20T11:25:32;100828.91;;;12.74;56.29
12636;BME280;6383;50.830;7.210;2023-04-20T11:28:04;100831.41;;;12.84;55.79
12636;BME280;6383;50.830;7.210;2023-04-20T11:30:37;100820.22;;;12.94;54.99
12636;BME280;6383;50.830;7.210;2023-04-20T11:33:07;100817.94;;;13.10;55.58
12636;BME280;6383;50.830;7.210;2023-04-20T11:35:36;100818.25;;;13.08;54.95
12636;BME280;6383;50.830;7.210;2023-04-20T11:38:04;100815.91;;;13.16;54.83
12636;BME280;6383;50.830;7.210;2023-04-20T11:40:33;100822.06;;;13.21;53.46
12636;BME280;6383;50.830;7.210;2023-04-20T11:43:02;100825.78;;;13.25;53.16
12636;BME280;6383;50.830;7.210;2023-04-20T11:45:30;100825.78;;;13.25;52.34
12636;BME280;6383;50.830;7.210;2023-04-20T11:47:59;100816.13;;;13.19;52.24
12636;BME280;6383;50.830;7.210;2023-04-20T11:50:30;100822.50;;;13.15;52.94
12636;BME280;6383;50.830;7.210;2023-04-20T11:52:59;100827.44;;;13.13;52.28
12636;BME280;6383;50.830;7.210;2023-04-20T11:55:28;100819.84;;;13.10;51.73
12636;BME280;6383;50.830;7.210;2023-04-20T11:57:56;100810.69;;;13.05;51.96
12636;BME280;6383;50.830;7.210;2023-04-20T12:00:25;100815.00;;;13.06;52.01
12636;BME280;6383;50.830;7.210;2023-04-20T12:02:54;100818.25;;;13.08;52.41
12636;BME280;6383;50.830;7.210;2023-04-20T12:05:21;100814.59;;;13.13;52.34
12636;BME280;6383;50.830;7.210;2023-04-20T12:07:51;100813.69;;;13.18;51.92
12636;BME280;6383;50.830;7.210;2023-04-20T12:10:21;100812.25;;;13.20;51.04
12636;BME280;6383;50.830;7.210;2023-04-20T12:12:50;100818.03;;;13.19;51.78
12636;BME280;6383;50.830;7.210;2023-04-20T12:15:20;100813.69;;;13.18;50.87
12636;BME280;6383;50.830;7.210;2023-04-20T12:17:49;100813.38;;;13.19;51.24
12636;BME280;6383;50.830;7.210;2023-04-20T12:20:18;100813.03;;;13.21;50.61
12636;BME280;6383;50.830;7.210;2023-04-20T12:22:47;100813.22;;;13.24;50.35
12636;BME280;6383;50.830;7.210;2023-04-20T12:25:17;100804.09;;;13.29;50.57
12636;BME280;6383;50.830;7.210;2023-04-20T12:27:46;100797.72;;;13.33;50.67
12636;BME280;6383;50.830;7.210;2023-04-20T12:30:15;100794.81;;;13.38;50.98
12636;BME280;6383;50.830;7.210;2023-04-20T12:32:44;100797.63;;;13.47;50.38
12636;BME280;6383;50.830;7.210;2023-04-20T12:35:12;100790.25;;;13.56;49.68
12636;BME280;6383;50.830;7.210;2023-04-20T12:37:41;100774.53;;;13.62;50.20
12636;BME280;6383;50.830;7.210;2023-04-20T12:40:10;100778.59;;;13.73;50.64
12636;BME280;6383;50.830;7.210;2023-04-20T12:42:39;100772.50;;;13.85;50.20
12636;BME280;6383;50.830;7.210;2023-04-20T12:45:08;100772.69;;;13.97;49.82
12636;BME280;6383;50.830;7.210;2023-04-20T12:47:37;100773.06;;;14.04;48.17
12636;BME280;6383;50.830;7.210;2023-04-20T12:50:07;100777.09;;;14.06;47.28
12636;BME280;6383;50.830;7.210;2023-04-20T12:52:36;100774.84;;;14.08;47.94
12636;BME280;6383;50.830;7.210;2023-04-20T12:55:05;100771.75;;;14.10;47.44
12636;BME280;6383;50.830;7.210;2023-04-20T12:57:33;100770.31;;;14.12;47.39
12636;BME280;6383;50.830;7.210;2023-04-20T13:00:03;100764.53;;;14.14;47.03
12636;BME280;6383;50.830;7.210;2023-04-20T13:02:32;100766.97;;;14.16;47.16
12636;BME280;6383;50.830;7.210;2023-04-20T13:05:01;100765.66;;;14.13;46.75
12636;BME280;6383;50.830;7.210;2023-04-20T13:07:31;100765.16;;;14.11;47.42
12636;BME280;6383;50.830;7.210;2023-04-20T13:10:00;100763.09;;;14.08;46.97
12636;BME280;6383;50.830;7.210;2023-04-20T13:12:29;100758.56;;;14.03;46.43